메인 페이지
METAR-TAF:

METAR-TAF

공항 :

그와다르, 파키스탄

위도: 25-13-59N, 경도: 062-19-46E, 고도: 29m

METAR: 누락

시각: 01:08 (20:08 UTC)

예보

예보는 4 시간 38분 전, 15:30시(UTC)에 발표되었습니다.
예보 대상 시간: 30일 18시부터 01일 18시까지 (UTC)
12kt
시정: 6000m
일시적
30일 18시부터 01일 04시까지 (UTC)
kt
시정: 1500m
박무

TAF: OPGD 301530Z 3018/0118 27012KT 6000 NSC TEMPO 3018/0104 00000KT 1500 BR NSC

4,000개 이상의 공항 관측 자료 및 예보 (METAR 및 TAF 보고).

지도상에서 검색 가능한 기상관측소가 노란 점과 빨간 점으로 표시되어 있습니다.

기상관측소 명을 보려면 표시 위로 마우스를 이동하세요.

날씨 관측과 예보를 보려면 클릭하세요.

지도 변경 : 확대하려면 엑스 표시가 있는 녹색 버튼, 축소하려면 빼기 표시가 있는 녹색 버튼, 다음 페이지의 지도를 보려면 녹색 화살표를 클릭하세요.


METAR-TAF: